Time;durP1;ratioP1;P1;durP2;ratioP2;P2;SDS_P1;SDS_P2;PMS_P1;PMS_P2;Temp;Humidity;BMP_temperature;BMP_pressure;BME280_temperature;BME280_humidity;BME280_pressure;Samples;Min_cycle;Max_cycle;Signal;HPM_P1;HPM_P2
2021/08/23 00:00:30;;;;;;;9.23;5.73;;;;;;;22.32;43.16;95372.69;5029913;28;20203;-68
2021/08/23 00:02:57;;;;;;;7.83;5.83;;;;;;;22.34;43.34;95384.63;5032787;28;20205;-68
2021/08/23 00:05:24;;;;;;;10.37;5.90;;;;;;;22.21;43.98;95376.81;5015818;28;20209;-67
2021/08/23 00:07:50;;;;;;;6.93;6.23;;;;;;;22.22;43.90;95381.81;5010775;28;20213;-68
2021/08/23 00:10:19;;;;;;;6.20;5.60;;;;;;;22.09;43.97;95385.44;5023430;28;20288;-68
2021/08/23 00:12:46;;;;;;;8.53;6.03;;;;;;;22.11;44.30;95377.91;5019966;28;20241;-69
2021/08/23 00:15:16;;;;;;;8.77;6.00;;;;;;;22.20;44.11;95384.03;5027401;28;20682;-68
2021/08/23 00:17:43;;;;;;;7.53;5.77;;;;;;;22.12;44.71;95382.13;5010456;28;20206;-68
2021/08/23 00:20:13;;;;;;;9.27;5.93;;;;;;;22.07;44.63;95391.09;5009353;28;20190;-67
2021/08/23 00:22:51;;;;;;;6.90;5.97;;;;;;;22.00;44.62;95365.97;5010655;28;20213;-67
2021/08/23 00:25:20;;;;;;;6.60;5.93;;;;;;;22.16;44.54;95385.75;5015752;28;20208;-67
2021/08/23 00:27:48;;;;;;;7.67;5.77;;;;;;;22.13;44.69;95378.38;5017649;28;20193;-68
2021/08/23 00:30:16;;;;;;;8.40;6.13;;;;;;;22.06;44.62;95388.75;5028510;28;20209;-67
2021/08/23 00:32:43;;;;;;;8.90;6.00;;;;;;;22.06;44.91;95388.75;5029787;28;20197;-69
2021/08/23 00:35:10;;;;;;;8.23;5.97;;;;;;;21.96;44.93;95386.38;5029334;28;20196;-68
2021/08/23 00:37:38;;;;;;;6.73;5.97;;;;;;;21.89;45.26;95392.22;5030112;28;20237;-69
2021/08/23 00:40:06;;;;;;;7.20;6.10;;;;;;;21.85;45.26;95385.13;5029345;28;20193;-69
2021/08/23 00:42:33;;;;;;;9.40;5.90;;;;;;;21.85;45.25;95390.47;5029970;28;20223;-68
2021/08/23 00:45:00;;;;;;;6.73;5.50;;;;;;;21.84;45.57;95388.91;5029253;28;20205;-68
2021/08/23 00:47:27;;;;;;;9.33;5.90;;;;;;;21.70;46.01;95389.03;5023679;28;20205;-67
2021/08/23 00:49:54;;;;;;;7.00;5.90;;;;;;;21.81;45.70;95395.66;5022726;28;20228;-68
2021/08/23 00:52:23;;;;;;;6.83;5.87;;;;;;;21.71;45.83;95395.16;5010636;28;20201;-67
2021/08/23 00:54:50;;;;;;;8.47;5.30;;;;;;;21.76;45.91;95392.31;5010466;28;20221;-67
2021/08/23 00:57:17;;;;;;;6.23;5.63;;;;;;;21.81;45.62;95395.66;5027282;28;20233;-68
2021/08/23 00:59:44;;;;;;;7.97;5.60;;;;;;;21.86;45.61;95392.06;5030804;28;20201;-68
2021/08/23 01:02:11;;;;;;;6.20;5.60;;;;;;;21.86;45.56;95389.38;5015341;28;20194;-67
2021/08/23 01:05:07;;;;;;;6.73;6.03;;;;;;;21.68;46.17;95390.41;5029959;28;20205;-67
2021/08/23 01:07:47;;;;;;;6.80;5.60;;;;;;;21.76;46.07;95392.31;5019539;28;20209;-68
2021/08/23 01:10:18;;;;;;;11.47;6.13;;;;;;;21.51;46.29;95374.41;5015333;28;20213;-67
2021/08/23 01:12:45;;;;;;;6.33;5.73;;;;;;;21.78;45.84;95390.13;5029518;28;20205;-67
2021/08/23 01:15:12;;;;;;;9.47;6.13;;;;;;;21.66;46.55;95371.31;5029158;28;20201;-67
2021/08/23 01:17:40;;;;;;;6.27;5.67;;;;;;;21.64;46.04;95374.25;5018195;28;20683;-67
2021/08/23 01:20:08;;;;;;;6.87;5.73;;;;;;;21.66;46.26;95377.41;5017667;28;20731;-67
2021/08/23 01:22:45;;;;;;;7.93;5.80;;;;;;;21.65;46.10;95386.50;5022086;28;20205;-67
2021/08/23 01:25:20;;;;;;;7.33;5.93;;;;;;;21.71;46.17;95379.13;5012610;28;20198;-67
2021/08/23 01:28:39;;;;;;;7.23;5.70;;;;;;;21.78;46.07;95382.91;5031364;28;20211;-67
2021/08/23 01:31:14;;;;;;;7.07;6.37;;;;;;;21.64;46.28;95376.94;5032194;28;20200;-67
2021/08/23 01:33:43;;;;;;;7.10;5.77;;;;;;;21.36;46.89;95372.97;5013997;28;20201;-67
2021/08/23 01:36:13;;;;;;;8.53;6.30;;;;;;;21.39;46.11;95366.22;5024547;28;20201;-68
2021/08/23 01:38:40;;;;;;;8.17;5.80;;;;;;;21.23;47.27;95375.75;5018719;28;20682;-67
2021/08/23 01:41:08;;;;;;;6.90;6.20;;;;;;;21.36;46.65;95364.19;5032134;28;20201;-67
2021/08/23 01:43:36;;;;;;;7.10;6.40;;;;;;;21.47;46.56;95374.25;5018903;28;20555;-67
2021/08/23 01:46:04;;;;;;;7.47;5.73;;;;;;;21.47;46.50;95373.47;5023247;28;20193;-68
2021/08/23 01:48:31;;;;;;;7.27;6.20;;;;;;;21.47;46.74;95371.59;5026314;28;20817;-67
2021/08/23 01:50:58;;;;;;;7.17;6.47;;;;;;;21.43;46.27;95372.50;5012098;28;20252;-67
2021/08/23 01:53:24;;;;;;;7.00;6.00;;;;;;;21.28;46.88;95362.28;5013000;28;20688;-69
2021/08/23 01:55:51;;;;;;;8.17;5.80;;;;;;;21.30;46.91;95368.09;5026375;28;20218;-68
2021/08/23 01:58:19;;;;;;;6.80;5.60;;;;;;;21.24;47.00;95362.13;5012774;28;20237;-67
2021/08/23 02:00:47;;;;;;;6.60;5.60;;;;;;;21.34;46.88;95369.84;5011764;28;20194;-68
2021/08/23 02:03:14;;;;;;;6.40;5.80;;;;;;;21.30;46.90;95368.09;5022797;28;20611;-68
2021/08/23 02:05:41;;;;;;;8.83;5.90;;;;;;;21.24;47.15;95369.34;5032677;28;20193;-69
2021/08/23 02:08:08;;;;;;;7.07;6.37;;;;;;;21.05;47.36;95373.06;5033797;28;20204;-69
2021/08/23 02:10:35;;;;;;;8.33;6.10;;;;;;;21.09;47.33;95358.00;5030331;28;20280;-68
2021/08/23 02:13:03;;;;;;;7.90;5.90;;;;;;;20.91;47.81;95367.03;5028451;28;20205;-67
2021/08/23 02:15:30;;;;;;;6.43;5.80;;;;;;;20.95;47.96;95362.66;5030205;28;20634;-69
2021/08/23 02:17:57;;;;;;;6.63;6.03;;;;;;;21.00;47.71;95370.53;5014190;28;20296;-68
2021/08/23 02:20:24;;;;;;;7.53;6.07;;;;;;;21.08;47.54;95367.13;5023788;28;20260;-68
2021/08/23 02:22:51;;;;;;;8.73;6.40;;;;;;;21.14;47.23;95365.88;5026261;28;20196;-69
2021/08/23 02:25:22;;;;;;;6.50;5.90;;;;;;;21.12;47.52;95360.06;5025458;28;20197;-68
2021/08/23 02:27:54;;;;;;;7.03;5.87;;;;;;;21.05;47.45;95350.97;5025083;28;20201;-67
2021/08/23 02:30:22;;;;;;;8.13;6.13;;;;;;;21.02;47.69;95340.94;5031438;28;20657;-67
2021/08/23 02:32:49;;;;;;;7.37;6.07;;;;;;;21.00;47.74;95349.22;5031918;28;20189;-68
2021/08/23 02:35:17;;;;;;;7.50;6.27;;;;;;;21.05;47.33;95346.44;5031183;28;20205;-68
2021/08/23 02:37:44;;;;;;;6.63;5.93;;;;;;;21.06;47.54;95347.97;5021360;28;20197;-67
2021/08/23 02:40:12;;;;;;;7.07;6.03;;;;;;;21.02;47.63;95344.34;5014031;28;20190;-69
2021/08/23 02:42:40;;;;;;;7.10;5.90;;;;;;;21.02;47.54;95340.94;5031399;28;20204;-68
2021/08/23 02:45:08;;;;;;;9.37;6.20;;;;;;;20.98;47.94;95346.03;5031045;28;20618;-68
2021/08/23 02:47:36;;;;;;;9.53;6.13;;;;;;;20.94;47.72;95350.44;5031571;28;20196;-67
2021/08/23 02:50:05;;;;;;;9.10;5.83;;;;;;;20.96;47.67;95348.25;5030922;28;20256;-68
2021/08/23 02:52:33;;;;;;;6.87;6.07;;;;;;;20.93;47.89;95348.84;5019506;28;20201;-68
2021/08/23 02:55:00;;;;;;;8.03;6.47;;;;;;;20.98;47.56;95340.72;5031697;28;20259;-67
2021/08/23 02:57:27;;;;;;;8.23;6.63;;;;;;;20.93;47.98;95340.84;5026168;28;20287;-67
2021/08/23 02:59:54;;;;;;;7.57;6.63;;;;;;;20.90;47.89;95338.81;5011473;28;20190;-67
2021/08/23 03:02:21;;;;;;;10.00;6.50;;;;;;;20.86;48.13;95348.50;5027603;28;20292;-66
2021/08/23 03:04:48;;;;;;;11.13;6.60;;;;;;;20.88;48.08;95346.34;5031377;28;20588;-66
2021/08/23 03:07:15;;;;;;;7.53;6.10;;;;;;;20.88;48.45;95335.69;5030903;28;20209;-68
2021/08/23 03:12:29;;;;;;;7.07;6.37;;;;;;;20.79;48.35;95348.19;5019242;28;20284;-68
2021/08/23 03:14:58;;;;;;;10.17;6.37;;;;;;;20.86;48.03;95348.50;5031020;28;20320;-68
2021/08/23 03:17:25;;;;;;;8.17;6.10;;;;;;;20.80;48.26;95352.41;5022162;28;20205;-67
2021/08/23 03:19:51;;;;;;;7.67;6.43;;;;;;;20.73;48.56;95349.41;5030590;28;20689;-68
2021/08/23 03:22:19;;;;;;;8.20;6.20;;;;;;;20.67;48.39;95350.66;5030645;28;20202;-68
2021/08/23 03:24:45;;;;;;;6.97;6.23;;;;;;;20.57;48.56;95342.13;5029312;28;20222;-69
2021/08/23 03:27:13;;;;;;;6.47;5.87;;;;;;;20.60;48.67;95355.63;5018110;28;20189;-68
2021/08/23 03:29:40;;;;;;;7.57;6.17;;;;;;;20.63;48.85;95357.69;5030864;28;20224;-68
2021/08/23 03:32:08;;;;;;;7.47;6.03;;;;;;;20.59;48.91;95347.94;5016617;28;20205;-68
2021/08/23 03:34:35;;;;;;;11.60;6.50;;;;;;;20.51;48.81;95349.47;5031294;28;20208;-67
2021/08/23 03:37:02;;;;;;;8.40;6.47;;;;;;;20.47;49.10;95356.50;5030022;28;20259;-67
2021/08/23 03:39:29;;;;;;;8.50;6.47;;;;;;;20.51;49.17;95357.44;5030567;28;20197;-68
2021/08/23 03:41:56;;;;;;;8.73;6.40;;;;;;;20.54;49.04;95353.41;5029465;28;20276;-67
2021/08/23 03:44:22;;;;;;;9.93;6.97;;;;;;;20.55;49.54;95358.41;5030589;28;20689;-68
2021/08/23 03:46:52;;;;;;;8.27;6.37;;;;;;;20.46;49.43;95360.25;5029799;28;20197;-68
2021/08/23 03:49:19;;;;;;;8.67;6.80;;;;;;;20.58;49.33;95368.47;5030095;28;20221;-67
2021/08/23 03:51:46;;;;;;;9.57;6.87;;;;;;;20.53;49.80;95359.81;5030172;28;20213;-67
2021/08/23 03:54:13;;;;;;;12.77;7.07;;;;;;;20.51;49.73;95365.44;5016690;28;20247;-68
2021/08/23 03:56:40;;;;;;;10.67;7.00;;;;;;;20.57;49.53;95368.75;5029745;28;20232;-67
2021/08/23 03:59:08;;;;;;;9.00;7.00;;;;;;;20.57;49.46;95369.53;5025540;28;20292;-67
2021/08/23 04:01:35;;;;;;;9.40;7.00;;;;;;;20.47;49.26;95339.75;5022241;28;20205;-68
2021/08/23 04:04:03;;;;;;;10.90;7.73;;;;;;;20.61;49.14;95365.19;5022690;28;20189;-68
2021/08/23 04:06:30;;;;;;;8.63;7.47;;;;;;;20.54;49.15;95362.19;5029416;28;20659;-69
2021/08/23 04:08:58;;;;;;;8.83;6.77;;;;;;;20.61;49.44;95367.84;5026667;28;20710;-70
2021/08/23 04:11:26;;;;;;;11.97;7.50;;;;;;;20.57;49.35;95372.22;5027056;28;20204;-71
2021/08/23 04:13:54;;;;;;;8.30;7.40;;;;;;;20.55;49.76;95363.75;5020033;28;20750;-69
2021/08/23 04:16:21;;;;;;;10.40;6.80;;;;;;;20.53;49.51;95355.28;5022986;28;20232;-71
2021/08/23 04:18:50;;;;;;;11.93;7.17;;;;;;;20.64;49.28;95367.22;5022717;28;20198;-69
2021/08/23 04:21:17;;;;;;;10.70;7.83;;;;;;;20.65;49.31;95363.50;5025291;28;20302;-70
2021/08/23 04:23:44;;;;;;;10.80;6.47;;;;;;;20.57;49.81;95371.41;5027839;28;20196;-70
2021/08/23 04:26:11;;;;;;;11.70;7.63;;;;;;;20.70;49.54;95367.88;5028218;28;20189;-68
2021/08/23 04:28:38;;;;;;;10.90;7.47;;;;;;;20.64;49.73;95371.75;5029386;28;20201;-68
2021/08/23 04:31:05;;;;;;;9.80;7.67;;;;;;;20.62;49.85;95369.41;5028337;28;20272;-69
2021/08/23 04:33:32;;;;;;;12.10;7.73;;;;;;;20.63;49.98;95376.31;5023162;28;20221;-69
2021/08/23 04:35:59;;;;;;;10.43;7.40;;;;;;;20.68;49.79;95370.84;5026954;28;20197;-70
2021/08/23 04:38:26;;;;;;;12.50;8.03;;;;;;;20.69;49.85;95374.31;5029467;28;20189;-69
2021/08/23 04:40:52;;;;;;;11.03;7.80;;;;;;;20.63;50.82;95370.19;5030102;28;20263;-68
2021/08/23 04:43:19;;;;;;;15.97;8.37;;;;;;;20.69;50.26;95375.06;5022395;28;20288;-72
2021/08/23 04:45:46;;;;;;;11.83;7.90;;;;;;;20.75;50.21;95376.53;5024761;28;20192;-74
2021/08/23 04:48:13;;;;;;;12.77;7.53;;;;;;;20.79;49.96;95379.34;5016660;28;20197;-76
2021/08/23 04:50:40;;;;;;;17.37;7.77;;;;;;;20.85;50.14;95378.94;5025530;28;20213;-73
2021/08/23 04:53:07;;;;;;;13.33;7.97;;;;;;;20.83;49.86;95373.13;5024661;28;20205;-71
2021/08/23 04:55:34;;;;;;;15.17;7.80;;;;;;;20.87;49.84;95371.41;5033563;28;20189;-73
2021/08/23 04:58:01;;;;;;;12.87;8.37;;;;;;;20.96;50.07;95377.56;5033319;28;20237;-71
2021/08/23 05:00:28;;;;;;;11.80;7.23;;;;;;;20.95;50.09;95373.31;5026394;28;20690;-74
2021/08/23 05:02:55;;;;;;;11.10;7.40;;;;;;;20.96;50.18;95358.91;5033014;28;20200;-73
2021/08/23 05:05:22;;;;;;;18.37;8.00;;;;;;;20.97;50.13;95365.78;5026206;28;20193;-74
2021/08/23 05:07:49;;;;;;;14.23;7.53;;;;;;;20.95;50.25;95361.84;5022150;28;20208;-73
2021/08/23 05:10:17;;;;;;;10.27;7.33;;;;;;;21.02;49.97;95363.00;5030401;28;20227;-74
2021/08/23 05:12:44;;;;;;;19.83;8.23;;;;;;;21.13;49.75;95358.97;5033400;28;20201;-74
2021/08/23 05:15:11;;;;;;;16.03;7.50;;;;;;;21.06;50.18;95363.97;5028758;28;20201;-73
2021/08/23 05:17:38;;;;;;;11.97;7.87;;;;;;;21.11;50.33;95361.16;5033527;28;20217;-72
2021/08/23 05:20:06;;;;;;;13.53;7.50;;;;;;;21.15;50.26;95367.44;5032889;28;20699;-75
2021/08/23 05:22:37;;;;;;;12.23;7.87;;;;;;;21.04;50.17;95355.50;5033343;28;20200;-79
2021/08/23 05:25:06;;;;;;;14.20;8.03;;;;;;;20.93;49.60;95353.38;5029861;28;20668;-76
2021/08/23 05:27:33;;;;;;;18.50;8.67;;;;;;;21.02;50.16;95348.94;5025104;28;20597;-74
2021/08/23 05:30:02;;;;;;;18.13;8.10;;;;;;;21.03;49.73;95363.81;5034855;28;20916;-72
2021/08/23 05:32:29;;;;;;;14.97;7.93;;;;;;;21.15;49.29;95364.78;5034236;28;20224;-74
2021/08/23 05:34:57;;;;;;;14.97;7.00;;;;;;;21.01;49.49;95352.66;5032102;28;20197;-72
2021/08/23 05:37:24;;;;;;;11.73;7.67;;;;;;;21.03;49.79;95358.47;5021018;28;20197;-70
2021/08/23 05:39:51;;;;;;;14.07;7.70;;;;;;;21.17;49.10;95357.25;5033147;28;20276;-71
2021/08/23 05:42:18;;;;;;;12.63;7.83;;;;;;;21.17;48.87;95355.69;5014733;28;20209;-71
2021/08/23 05:44:45;;;;;;;127.23;100.77;;;;;;;21.29;48.87;95367.31;5025167;28;20288;-72
2021/08/23 05:47:12;;;;;;;31.47;20.80;;;;;;;21.18;48.84;95345.50;5032517;28;20207;-72
2021/08/23 05:49:39;;;;;;;20.03;11.47;;;;;;;21.42;48.15;95370.94;5022172;28;20210;-70
2021/08/23 05:52:06;;;;;;;10.67;7.60;;;;;;;21.47;48.22;95368.13;5021435;28;20186;-73
2021/08/23 05:54:33;;;;;;;12.03;8.30;;;;;;;21.51;48.54;95366.41;5031415;28;20236;-76
2021/08/23 05:57:00;;;;;;;22.40;16.80;;;;;;;21.64;48.25;95368.16;5027591;28;20233;-75
2021/08/23 05:59:27;;;;;;;12.47;8.23;;;;;;;21.83;47.75;95371.31;5027987;28;20573;-74
2021/08/23 06:01:56;;;;;;;10.33;7.27;;;;;;;21.87;47.78;95366.94;5029861;28;20702;-73
2021/08/23 06:04:23;;;;;;;13.97;7.10;;;;;;;21.85;47.35;95363.78;5031040;28;20255;-77
2021/08/23 06:06:51;;;;;;;9.37;6.27;;;;;;;21.85;47.55;95363.78;5028838;28;20664;-76
2021/08/23 06:09:20;;;;;;;15.77;6.53;;;;;;;21.93;46.93;95365.69;5030973;28;20200;-70
2021/08/23 06:11:50;;;;;;;13.50;6.93;;;;;;;21.98;46.93;95360.19;5029826;28;20276;-68
2021/08/23 06:14:17;;;;;;;13.37;6.63;;;;;;;22.00;46.94;95355.31;5029771;28;20216;-70
2021/08/23 06:16:44;;;;;;;10.33;7.13;;;;;;;21.94;47.76;95364.56;5026858;28;20197;-70
2021/08/23 06:19:11;;;;;;;13.27;8.10;;;;;;;22.11;47.39;95356.56;5028774;28;20201;-71
2021/08/23 06:21:38;;;;;;;9.93;7.87;;;;;;;22.38;47.23;95361.53;5026275;28;20193;-72
2021/08/23 06:24:05;;;;;;;9.13;6.93;;;;;;;22.33;46.77;95356.38;5026193;28;20193;-71
2021/08/23 06:26:32;;;;;;;13.47;7.10;;;;;;;22.30;47.11;95358.88;5026348;28;20196;-72
2021/08/23 06:28:59;;;;;;;11.67;7.23;;;;;;;22.45;46.53;95345.78;5027410;28;20204;-71
2021/08/23 06:31:26;;;;;;;42.90;32.90;;;;;;;22.61;45.64;95352.22;5029385;28;20224;-72
2021/08/23 06:33:53;;;;;;;28.83;21.50;;;;;;;22.61;45.49;95354.88;5028453;28;20228;-71
2021/08/23 06:36:20;;;;;;;8.47;6.53;;;;;;;22.76;45.36;95354.38;5029656;28;20219;-68
2021/08/23 06:38:47;;;;;;;11.47;6.37;;;;;;;22.66;45.91;95349.34;5023473;28;20582;-74
2021/08/23 06:41:18;;;;;;;17.57;7.33;;;;;;;22.87;45.48;95355.56;5029265;28;20596;-71
2021/08/23 06:43:50;;;;;;;15.43;8.20;;;;;;;22.93;44.87;95346.28;5027489;28;20223;-73
2021/08/23 06:46:17;;;;;;;11.90;6.73;;;;;;;22.94;44.17;95350.50;5027404;28;20201;-70
2021/08/23 06:48:44;;;;;;;9.53;6.93;;;;;;;22.89;44.41;95360.59;5026873;28;20647;-69
2021/08/23 06:51:13;;;;;;;12.47;6.60;;;;;;;22.95;44.39;95354.75;5024006;28;20556;-69
2021/08/23 06:53:39;;;;;;;11.80;6.83;;;;;;;23.10;44.08;95351.53;5028592;28;20216;-70
2021/08/23 06:56:06;;;;;;;9.93;6.67;;;;;;;23.13;44.18;95356.25;5028480;28;20667;-68
2021/08/23 06:58:33;;;;;;;9.43;5.90;;;;;;;23.36;43.76;95355.97;5026394;28;20291;-68
2021/08/23 07:01:00;;;;;;;10.73;7.93;;;;;;;23.36;43.20;95353.28;5026842;28;20203;-68
2021/08/23 07:03:28;;;;;;;34.60;30.70;;;;;;;23.46;42.57;95358.28;5026532;28;20205;-69
2021/08/23 07:05:55;;;;;;;8.60;6.17;;;;;;;23.45;42.21;95346.00;5028525;28;20204;-71
2021/08/23 07:08:42;;;;;;;13.70;7.43;;;;;;;23.11;42.07;95347.75;5027551;28;20247;-71
2021/08/23 07:11:10;;;;;;;8.97;6.07;;;;;;;23.23;42.74;95343.59;5026103;28;20220;-72
2021/08/23 07:13:39;;;;;;;8.77;6.57;;;;;;;23.53;42.67;95342.47;5026137;28;20235;-69
2021/08/23 07:16:06;;;;;;;8.10;5.50;;;;;;;23.60;43.14;95337.38;5027448;28;20707;-73
2021/08/23 07:18:34;;;;;;;12.07;6.27;;;;;;;23.58;43.23;95335.03;5028928;28;20193;-72
2021/08/23 07:21:03;;;;;;;9.30;5.90;;;;;;;23.67;43.38;95340.31;5027855;28;20251;-71
2021/08/23 07:23:30;;;;;;;8.90;6.37;;;;;;;23.91;43.04;95329.75;5023441;28;21021;-74
2021/08/23 07:25:57;;;;;;;10.47;5.97;;;;;;;24.04;42.58;95321.47;5022376;28;20579;-73
2021/08/23 07:28:26;;;;;;;8.40;6.63;;;;;;;23.75;41.57;95334.13;5026650;28;20193;-68
2021/08/23 07:30:53;;;;;;;11.73;6.77;;;;;;;23.74;42.06;95317.28;5027816;28;20680;-71
2021/08/23 07:33:23;;;;;;;18.07;16.17;;;;;;;24.01;42.43;95322.09;5027623;28;20193;-74
2021/08/23 07:35:49;;;;;;;10.77;8.33;;;;;;;24.27;42.21;95321.84;5025536;28;20790;-70
2021/08/23 07:38:16;;;;;;;8.33;6.30;;;;;;;24.40;41.89;95326.13;5024378;28;20204;-69
2021/08/23 07:42:18;;;;;;;9.00;6.87;;;;;;;24.16;41.13;95323.38;5050283;27;20567;-72
2021/08/23 07:44:45;;;;;;;9.23;6.60;;;;;;;24.45;41.46;95320.56;5053581;28;20218;-73
2021/08/23 07:47:12;;;;;;;7.00;6.30;;;;;;;24.51;41.42;95311.19;5065871;28;20230;-69
2021/08/23 07:49:40;;;;;;;12.13;5.67;;;;;;;24.75;41.14;95329.22;5059904;28;20188;-69
2021/08/23 07:52:07;;;;;;;9.60;6.17;;;;;;;24.97;40.87;95321.53;5059735;28;20576;-69
2021/08/23 07:54:36;;;;;;;14.90;6.10;;;;;;;24.99;40.08;95323.88;5061981;28;20188;-70
2021/08/23 07:57:04;;;;;;;9.47;6.07;;;;;;;25.02;40.09;95324.00;5056987;28;20202;-68
2021/08/23 07:59:32;;;;;;;10.30;6.03;;;;;;;25.03;39.69;95317.53;5051993;28;20199;-68
2021/08/23 08:01:58;;;;;;;9.83;7.00;;;;;;;24.94;39.40;95306.09;5065739;28;20222;-65
2021/08/23 08:04:25;;;;;;;8.80;7.33;;;;;;;24.71;39.15;95315.72;5065362;28;20196;-67
2021/08/23 08:06:52;;;;;;;11.53;7.33;;;;;;;24.42;40.07;95310.50;5060770;28;20193;-68
2021/08/23 08:09:19;;;;;;;8.90;5.90;;;;;;;24.57;39.84;95312.56;5050086;28;20204;-64
2021/08/23 08:11:46;;;;;;;13.37;6.93;;;;;;;24.83;40.29;95305.03;5062955;28;20215;-68
2021/08/23 08:14:32;;;;;;;11.73;6.00;;;;;;;25.12;40.50;95301.31;5061334;28;20207;-67
2021/08/23 08:16:59;;;;;;;9.87;6.13;;;;;;;25.29;39.57;95302.97;5057981;28;20716;-70
2021/08/23 08:19:26;;;;;;;12.33;6.27;;;;;;;25.40;39.89;95301.41;5060514;28;20200;-68
2021/08/23 08:21:53;;;;;;;14.07;6.83;;;;;;;25.51;39.32;95292.53;5065721;28;20216;-69
2021/08/23 08:24:20;;;;;;;8.77;6.00;;;;;;;25.61;38.46;95297.44;5066825;28;20204;-67
2021/08/23 08:26:46;;;;;;;7.53;6.40;;;;;;;25.57;39.36;95301.13;5061369;28;20205;-66
2021/08/23 08:29:13;;;;;;;11.23;5.67;;;;;;;25.96;38.75;95298.44;5055022;28;20199;-66
2021/08/23 08:31:41;;;;;;;8.27;5.63;;;;;;;25.86;38.37;95265.91;5051821;28;20199;-69
2021/08/23 08:34:07;;;;;;;9.50;6.00;;;;;;;25.94;38.30;95299.91;5066633;28;20678;-67
2021/08/23 08:36:34;;;;;;;16.60;14.70;;;;;;;26.16;38.01;95285.16;5065741;28;20208;-65
2021/08/23 08:39:01;;;;;;;90.67;81.53;;;;;;;26.27;38.59;95280.84;5054393;28;20196;-65
2021/08/23 08:41:30;;;;;;;9.67;6.87;;;;;;;26.33;36.94;95280.22;5053536;28;20263;-68
2021/08/23 08:44:00;;;;;;;9.30;6.37;;;;;;;26.42;36.49;95277.41;5065004;28;20199;-68
2021/08/23 08:46:27;;;;;;;7.37;5.37;;;;;;;26.46;36.60;95279.03;5064640;28;20670;-69
2021/08/23 08:48:56;;;;;;;10.53;6.10;;;;;;;26.59;37.80;95277.03;5053574;28;20207;-68
2021/08/23 08:51:23;;;;;;;6.97;5.70;;;;;;;26.85;36.85;95278.13;5046818;28;20197;-68
2021/08/23 08:53:50;;;;;;;6.97;5.90;;;;;;;26.87;36.59;95281.25;5046720;28;20196;-68
2021/08/23 08:56:17;;;;;;;8.80;5.47;;;;;;;27.19;36.08;95278.50;5051415;28;20201;-70
2021/08/23 08:58:44;;;;;;;10.63;5.77;;;;;;;26.74;36.44;95257.47;5052078;28;20196;-69
2021/08/23 09:01:12;;;;;;;7.97;5.17;;;;;;;26.72;36.30;95271.25;5039077;28;20587;-69
2021/08/23 09:03:45;;;;;;;7.67;5.80;;;;;;;26.73;37.19;95272.06;5051247;28;20667;-68
2021/08/23 09:06:12;;;;;;;8.83;5.43;;;;;;;26.90;36.58;95272.47;5051351;28;20216;-69
2021/08/23 09:08:44;;;;;;;12.07;7.30;;;;;;;27.02;36.77;95263.53;5051820;28;20216;-64
2021/08/23 09:11:12;;;;;;;56.90;51.57;;;;;;;27.34;35.21;95264.22;5050415;28;20200;-67
2021/08/23 09:13:40;;;;;;;15.33;10.37;;;;;;;27.18;34.58;95252.72;5051659;28;20212;-69
2021/08/23 09:16:08;;;;;;;9.57;7.93;;;;;;;27.28;34.76;95254.88;5034250;28;20201;-71
2021/08/23 09:18:35;;;;;;;13.10;6.33;;;;;;;27.56;35.77;95250.09;5032039;28;20594;-68
2021/08/23 09:21:07;;;;;;;7.80;5.57;;;;;;;27.78;35.63;95244.00;5031179;28;20726;-67
2021/08/23 09:23:36;;;;;;;7.43;6.50;;;;;;;27.85;34.86;95244.13;5051167;28;20294;-66
2021/08/23 09:26:11;;;;;;;13.60;5.97;;;;;;;27.83;35.77;95243.69;5045376;28;20200;-65
2021/08/23 09:28:40;;;;;;;4.97;4.47;;;;;;;27.95;34.29;95246.28;5041802;28;20215;-66
2021/08/23 09:31:11;;;;;;;6.73;5.30;;;;;;;27.75;34.53;95239.31;5035262;28;20193;-71
2021/08/23 09:33:45;;;;;;;6.43;5.43;;;;;;;27.93;33.92;95237.78;5049671;28;20193;-66
2021/08/23 09:36:19;;;;;;;15.60;13.80;;;;;;;27.74;34.08;95229.66;5051062;28;20417;-63
2021/08/23 09:39:05;;;;;;;13.07;8.97;;;;;;;27.77;34.45;95228.97;5046820;28;20192;-65
2021/08/23 09:41:40;;;;;;;7.47;5.80;;;;;;;27.78;33.85;95231.31;5051469;28;20236;-67
2021/08/23 09:44:11;;;;;;;7.40;5.50;;;;;;;28.02;33.50;95224.84;5036907;28;20228;-66
2021/08/23 09:46:40;;;;;;;5.40;4.90;;;;;;;28.18;32.60;95216.66;5036943;28;20197;-67
2021/08/23 09:49:09;;;;;;;5.93;5.33;;;;;;;28.45;33.37;95224.44;5032961;28;20194;-66
2021/08/23 09:51:41;;;;;;;5.17;4.67;;;;;;;28.74;31.48;95217.63;5045084;28;20204;-65
2021/08/23 09:54:10;;;;;;;6.93;5.60;;;;;;;28.84;31.95;95212.38;5046046;28;20204;-65
2021/08/23 09:57:05;;;;;;;8.40;4.90;;;;;;;28.85;31.25;95203.13;5051514;28;20207;-68
2021/08/23 09:59:39;;;;;;;7.17;5.37;;;;;;;28.78;31.01;95208.44;5037755;28;20209;-62
2021/08/23 10:02:09;;;;;;;7.77;4.73;;;;;;;28.98;30.25;95199.09;5051079;28;20223;-68
2021/08/23 10:04:37;;;;;;;10.90;8.20;;;;;;;29.24;30.59;95192.13;5050280;28;20189;-67
2021/08/23 10:07:08;;;;;;;13.40;8.37;;;;;;;29.46;30.63;95186.63;5050887;28;20192;-65
2021/08/23 10:09:35;;;;;;;8.23;5.20;;;;;;;29.51;29.77;95196.31;5051051;28;20258;-69
2021/08/23 10:12:02;;;;;;;7.20;5.20;;;;;;;29.16;28.65;95177.75;5048700;28;20196;-69
2021/08/23 10:14:29;;;;;;;5.50;4.97;;;;;;;29.13;27.45;95191.22;5044157;28;20205;-65
2021/08/23 10:16:56;;;;;;;5.27;4.73;;;;;;;29.46;28.60;95188.56;5046445;28;20196;-65
2021/08/23 10:19:24;;;;;;;6.03;4.73;;;;;;;29.59;27.54;95182.56;5037484;28;20197;-66
2021/08/23 10:21:51;;;;;;;6.03;5.03;;;;;;;29.61;27.32;95176.78;5044159;28;20228;-67
2021/08/23 10:24:29;;;;;;;5.77;4.40;;;;;;;29.78;26.00;95176.22;5031297;28;20199;-64
2021/08/23 10:26:57;;;;;;;4.93;4.53;;;;;;;29.52;26.99;95182.47;5043941;28;20203;-66
2021/08/23 10:29:36;;;;;;;7.30;4.63;;;;;;;29.85;26.94;95174.34;5042924;28;20242;-64
2021/08/23 10:32:10;;;;;;;5.90;4.70;;;;;;;29.85;28.29;95179.00;5044530;28;20248;-64
2021/08/23 10:34:38;;;;;;;7.70;4.77;;;;;;;29.94;26.04;95174.06;5030822;28;20208;-63
2021/08/23 10:37:20;;;;;;;5.47;4.50;;;;;;;30.05;25.63;95177.66;5049205;28;20299;-64
2021/08/23 10:40:01;;;;;;;6.50;4.97;;;;;;;30.21;26.38;95164.66;5050278;28;20583;-65
2021/08/23 10:42:39;;;;;;;4.77;4.23;;;;;;;30.44;25.84;95159.84;5030222;28;20758;-65
2021/08/23 10:45:15;;;;;;;5.60;4.10;;;;;;;30.46;25.34;95162.97;5030938;28;20200;-66
2021/08/23 10:47:46;;;;;;;5.03;4.40;;;;;;;30.66;25.17;95160.78;5042217;28;20679;-65
2021/08/23 10:50:26;;;;;;;4.90;4.50;;;;;;;30.64;25.26;95153.06;5044211;28;20204;-64
2021/08/23 10:52:55;;;;;;;5.47;3.93;;;;;;;30.36;24.81;95155.56;5038270;28;20266;-66
2021/08/23 10:55:25;;;;;;;5.90;4.00;;;;;;;30.59;24.24;95137.19;5050098;28;20567;-69
2021/08/23 10:58:04;;;;;;;5.23;4.63;;;;;;;30.68;24.59;95140.31;5036615;28;20199;-66
2021/08/23 11:00:40;;;;;;;4.83;4.10;;;;;;;30.61;23.65;95140.28;5049452;28;20200;-67
2021/08/23 11:03:08;;;;;;;4.77;4.27;;;;;;;30.88;23.12;95137.41;5050074;28;20302;-63
2021/08/23 11:05:37;;;;;;;6.10;4.37;;;;;;;30.67;23.83;95125.25;5049426;28;20196;-66
2021/08/23 11:08:08;;;;;;;10.43;4.47;;;;;;;30.34;23.96;95130.81;5043916;28;20691;-64
2021/08/23 11:10:39;;;;;;;7.20;4.90;;;;;;;30.63;23.37;95120.97;5042905;28;20189;-66
2021/08/23 11:13:12;;;;;;;5.37;4.20;;;;;;;30.34;24.75;95133.53;5043558;28;20586;-63
2021/08/23 11:15:40;;;;;;;9.60;4.70;;;;;;;30.42;24.05;95121.59;5042209;28;20651;-66
2021/08/23 11:18:12;;;;;;;4.87;4.37;;;;;;;30.62;25.42;95125.59;5035575;28;20233;-65
2021/08/23 11:20:48;;;;;;;6.47;4.33;;;;;;;30.86;24.10;95122.28;5049522;28;20266;-62
2021/08/23 11:23:20;;;;;;;5.37;4.40;;;;;;;30.61;24.77;95113.25;5035129;28;20258;-64
2021/08/23 11:25:49;;;;;;;4.63;4.23;;;;;;;30.95;24.51;95110.38;5040045;28;20663;-62
2021/08/23 11:28:21;;;;;;;8.53;7.57;;;;;;;30.99;24.21;95116.56;5048660;28;20196;-64
2021/08/23 11:30:55;;;;;;;5.63;4.60;;;;;;;31.00;23.86;95101.88;5041327;28;20189;-67
2021/08/23 11:33:35;;;;;;;4.63;4.03;;;;;;;30.75;24.28;95099.78;5045893;28;20224;-65
2021/08/23 11:36:08;;;;;;;6.03;4.23;;;;;;;31.31;24.10;95093.09;5038775;28;20193;-66
2021/08/23 11:38:37;;;;;;;6.50;3.93;;;;;;;30.97;23.86;95089.13;5046972;28;20213;-65
2021/08/23 11:41:05;;;;;;;4.80;4.23;;;;;;;31.26;23.46;95088.81;5039057;28;20784;-67